createdAt,value
2022-11-28T00:00:06.733Z,30.15
2022-11-28T00:03:16.496Z,29.38
2022-11-28T00:06:20.399Z,33.83
2022-11-28T00:09:23.968Z,34.17
2022-11-28T00:12:27.753Z,32.38
2022-11-28T00:15:31.568Z,31.27
2022-11-28T00:18:35.366Z,30.38
2022-11-28T00:21:39.102Z,27.87
2022-11-28T00:24:42.701Z,27.85
2022-11-28T00:27:46.322Z,28.95
2022-11-28T00:30:50.141Z,23.95
2022-11-28T00:33:54.502Z,23.33
2022-11-28T00:36:57.978Z,22.25
2022-11-28T00:40:01.549Z,17.73
2022-11-28T00:43:04.902Z,19.30
2022-11-28T00:46:08.570Z,19.23
2022-11-28T00:49:12.130Z,20.10
2022-11-28T00:52:15.521Z,22.38
2022-11-28T00:55:18.914Z,24.52
2022-11-28T00:58:22.496Z,23.23
2022-11-28T01:01:27.361Z,21.93
2022-11-28T01:04:31.010Z,22.13
2022-11-28T01:07:35.015Z,24.20
2022-11-28T01:10:45.807Z,24.23
2022-11-28T01:13:49.506Z,24.42
2022-11-28T01:16:53.005Z,22.70
2022-11-28T01:19:56.468Z,23.15
2022-11-28T01:22:59.890Z,25.02
2022-11-28T01:26:04.475Z,24.85
2022-11-28T01:29:08.415Z,19.70
2022-11-28T01:32:11.781Z,18.10
2022-11-28T01:35:15.154Z,18.52
2022-11-28T01:38:18.760Z,18.58
2022-11-28T01:41:25.429Z,16.88
2022-11-28T01:44:29.315Z,13.82
2022-11-28T01:47:33.588Z,15.53
2022-11-28T01:50:39.122Z,14.43
2022-11-28T01:53:45.956Z,15.25
2022-11-28T01:57:11.900Z,16.17
2022-11-28T02:00:20.702Z,14.52
2022-11-28T02:03:48.279Z,14.97
2022-11-28T02:06:51.605Z,16.65
2022-11-28T02:09:55.583Z,17.33
2022-11-28T02:13:28.136Z,15.43
2022-11-28T02:16:34.597Z,16.13
2022-11-28T02:19:53.086Z,16.02
2022-11-28T02:23:28.119Z,15.82
2022-11-28T02:26:49.859Z,15.35
2022-11-28T02:30:02.419Z,14.90
2022-11-28T02:33:27.570Z,13.60
2022-11-28T02:36:51.151Z,13.43
2022-11-28T02:39:54.548Z,14.68
2022-11-28T02:43:12.829Z,14.90
2022-11-28T02:46:34.528Z,14.00
2022-11-28T02:49:53.103Z,13.77
2022-11-28T02:53:13.807Z,14.27
2022-11-28T02:56:17.583Z,13.88
2022-11-28T02:59:47.466Z,14.13
2022-11-28T03:03:12.910Z,13.90
2022-11-28T03:06:17.874Z,14.80
2022-11-28T03:09:35.010Z,15.23
2022-11-28T03:13:17.243Z,14.95
2022-11-28T03:16:37.274Z,15.55
2022-11-28T03:19:54.987Z,14.73
2022-11-28T03:23:18.566Z,16.17
2022-11-28T03:26:34.427Z,16.23
2022-11-28T03:29:55.009Z,14.55
2022-11-28T03:33:00.988Z,15.63
2022-11-28T03:36:32.993Z,15.50
2022-11-28T03:39:42.441Z,16.85
2022-11-28T03:42:51.189Z,15.77
2022-11-28T03:46:02.700Z,15.82
2022-11-28T03:49:09.609Z,14.48
2022-11-28T03:52:31.791Z,13.67
2022-11-28T03:55:43.289Z,14.90
2022-11-28T03:58:52.508Z,14.38
2022-11-28T04:02:26.467Z,17.77
2022-11-28T04:05:47.914Z,18.17
2022-11-28T04:09:10.170Z,25.00
2022-11-28T04:12:23.440Z,18.58
2022-11-28T04:16:01.303Z,16.85
2022-11-28T04:19:10.635Z,15.10
2022-11-28T04:22:18.049Z,14.38
2022-11-28T04:25:24.203Z,14.43
2022-11-28T04:28:33.143Z,13.13
2022-11-28T04:31:39.592Z,14.23
2022-11-28T04:34:47.646Z,13.75
2022-11-28T04:37:53.724Z,14.63
2022-11-28T04:41:20.010Z,14.43
2022-11-28T04:44:57.493Z,14.98
2022-11-28T04:48:01.968Z,13.20
2022-11-28T04:51:14.407Z,13.13
2022-11-28T04:54:48.462Z,13.43
2022-11-28T04:57:59.468Z,13.52
2022-11-28T05:01:08.268Z,13.52
2022-11-28T05:04:13.666Z,13.65
2022-11-28T05:07:17.050Z,17.73
2022-11-28T05:10:20.574Z,14.10
2022-11-28T05:13:23.971Z,13.90
2022-11-28T05:16:27.460Z,14.13
2022-11-28T05:19:30.948Z,15.65
2022-11-28T05:22:35.696Z,16.17
2022-11-28T05:25:40.223Z,16.20
2022-11-28T05:28:51.070Z,15.85
2022-11-28T05:31:54.606Z,13.70
2022-11-28T05:34:58.261Z,14.40
2022-11-28T05:38:01.661Z,16.33
2022-11-28T05:41:05.516Z,25.48
2022-11-28T05:44:09.808Z,17.88
2022-11-28T05:47:13.203Z,17.83
2022-11-28T05:50:17.715Z,19.13
2022-11-28T05:53:21.448Z,18.75
2022-11-28T05:56:24.878Z,17.92
2022-11-28T05:59:28.466Z,13.63
2022-11-28T06:02:31.966Z,13.23
2022-11-28T06:05:43.223Z,14.18
2022-11-28T06:08:48.968Z,14.57
2022-11-28T06:11:52.466Z,13.90
2022-11-28T06:14:55.842Z,14.65
2022-11-28T06:17:59.164Z,15.98
2022-11-28T06:21:04.455Z,15.65
2022-11-28T06:24:09.515Z,13.70
2022-11-28T06:27:12.838Z,13.35
2022-11-28T06:30:16.345Z,13.68
2022-11-28T06:33:19.759Z,16.35
2022-11-28T06:36:23.966Z,16.05
2022-11-28T06:39:27.988Z,14.48
2022-11-28T06:42:31.538Z,12.85
2022-11-28T06:45:35.776Z,13.63
2022-11-28T06:48:39.347Z,12.88
2022-11-28T06:51:43.402Z,13.05
2022-11-28T06:54:46.769Z,14.63
2022-11-28T06:57:50.071Z,18.45
2022-11-28T07:00:53.644Z,19.35
2022-11-28T07:03:57.502Z,22.47
2022-11-28T07:07:00.943Z,17.33
2022-11-28T07:10:05.559Z,18.55
2022-11-28T07:13:10.504Z,17.10
2022-11-28T07:16:16.965Z,17.00
2022-11-28T07:19:23.190Z,15.40
2022-11-28T07:22:27.323Z,18.38
2022-11-28T07:25:30.998Z,18.10
2022-11-28T07:28:35.452Z,16.70
2022-11-28T07:31:39.105Z,15.47
2022-11-28T07:34:44.623Z,15.05
2022-11-28T07:37:51.131Z,13.63
2022-11-28T07:40:56.085Z,13.43
2022-11-28T07:44:01.816Z,14.98
2022-11-28T07:47:05.322Z,13.50
2022-11-28T07:50:09.331Z,13.30
2022-11-28T07:53:12.885Z,15.02
2022-11-28T07:56:19.846Z,13.95
2022-11-28T07:59:23.341Z,12.03
2022-11-28T08:02:27.535Z,13.48
2022-11-28T08:05:33.739Z,13.50
2022-11-28T08:08:37.299Z,12.45
2022-11-28T08:11:43.129Z,13.38
2022-11-28T08:14:46.812Z,12.57
2022-11-28T08:17:50.263Z,12.93
2022-11-28T08:21:02.590Z,13.75
2022-11-28T08:24:08.280Z,12.43
2022-11-28T08:27:11.776Z,9.43
2022-11-28T08:30:16.163Z,12.73
2022-11-28T08:33:20.316Z,12.45
2022-11-28T08:36:28.927Z,12.80
2022-11-28T08:39:34.201Z,11.20
2022-11-28T08:42:38.102Z,11.50
2022-11-28T08:45:41.500Z,11.37
2022-11-28T08:48:46.037Z,12.60
2022-11-28T08:51:49.316Z,11.55
2022-11-28T08:54:53.036Z,11.73
2022-11-28T08:57:56.420Z,11.25
2022-11-28T09:00:59.872Z,11.67
2022-11-28T09:04:04.288Z,11.15
2022-11-28T09:07:07.707Z,12.82
2022-11-28T09:10:11.413Z,12.70
2022-11-28T09:13:16.692Z,11.57
2022-11-28T09:16:20.268Z,11.00
2022-11-28T09:19:24.811Z,10.65
2022-11-28T09:22:29.771Z,10.32
2022-11-28T09:25:36.258Z,12.38
2022-11-28T09:28:40.530Z,9.90
2022-11-28T09:31:47.326Z,10.63
2022-11-28T09:34:51.459Z,9.93
2022-11-28T09:37:54.960Z,10.90
2022-11-28T09:40:58.505Z,10.90
2022-11-28T09:44:41.631Z,10.43
2022-11-28T09:47:49.945Z,10.23
2022-11-28T09:51:00.766Z,11.82
2022-11-28T09:54:18.904Z,11.00
2022-11-28T09:57:45.654Z,10.88
2022-11-28T10:01:03.781Z,10.52
2022-11-28T10:30:23.564Z,11.67
2022-11-28T10:33:40.143Z,12.20
2022-11-28T10:37:11.162Z,11.60
2022-11-28T10:40:29.523Z,12.23
2022-11-28T10:43:54.899Z,11.65
2022-11-28T10:47:27.706Z,13.07
2022-11-28T10:50:39.315Z,12.13
2022-11-28T10:53:57.168Z,13.38
2022-11-28T10:57:00.533Z,12.57
2022-11-28T11:00:15.008Z,13.70
2022-11-28T11:03:19.856Z,13.77
2022-11-28T11:06:36.062Z,13.02
2022-11-28T11:09:45.739Z,13.68
2022-11-28T11:12:52.768Z,13.23
2022-11-28T11:16:02.895Z,12.90
2022-11-28T11:19:06.354Z,15.33
2022-11-28T11:22:29.267Z,13.77
2022-11-28T11:25:33.817Z,12.88
2022-11-28T11:28:47.268Z,13.65
2022-11-28T11:31:55.444Z,13.75
2022-11-28T11:34:59.816Z,14.60
2022-11-28T11:38:32.337Z,14.00
2022-11-28T11:41:52.099Z,14.57
2022-11-28T11:44:56.613Z,13.65
2022-11-28T11:48:00.621Z,14.65
2022-11-28T11:51:04.875Z,14.13
2022-11-28T11:54:14.534Z,13.45
2022-11-28T11:57:35.223Z,13.80
2022-11-28T12:00:40.544Z,13.10
2022-11-28T12:04:08.542Z,14.88
2022-11-28T12:07:40.913Z,14.00
2022-11-28T12:11:08.547Z,13.63
2022-11-28T12:14:30.699Z,14.55
2022-11-28T12:17:58.360Z,13.38
2022-11-28T12:21:16.184Z,14.60
2022-11-28T12:24:46.637Z,15.27
2022-11-28T12:28:17.529Z,15.07
2022-11-28T12:31:29.828Z,14.95
2022-11-28T12:34:48.587Z,15.35
2022-11-28T12:38:13.253Z,15.88
2022-11-28T12:41:46.187Z,15.70
2022-11-28T12:45:06.399Z,16.42
2022-11-28T12:48:33.769Z,16.30
2022-11-28T12:51:49.195Z,16.80
2022-11-28T12:55:17.976Z,15.70
2022-11-28T12:58:51.803Z,16.60
2022-11-28T13:02:13.743Z,17.25
2022-11-28T13:05:25.925Z,16.25
2022-11-28T13:08:49.364Z,16.80
2022-11-28T13:12:27.515Z,17.88
2022-11-28T13:15:36.879Z,17.13
2022-11-28T13:19:08.140Z,15.70
2022-11-28T13:22:24.828Z,16.45
2022-11-28T13:25:31.367Z,16.50
2022-11-28T13:28:51.943Z,17.45
2022-11-28T13:32:04.114Z,16.43
2022-11-28T13:35:16.533Z,17.55
2022-11-28T13:38:44.104Z,16.90
2022-11-28T13:45:30.089Z,18.25
2022-11-28T13:52:17.831Z,20.02
2022-11-28T13:55:41.456Z,21.17
2022-11-28T13:58:57.753Z,19.15
2022-11-28T14:02:05.728Z,22.83
2022-11-28T14:05:41.604Z,20.97
2022-11-28T14:08:46.860Z,21.25
2022-11-28T14:12:08.705Z,20.85
2022-11-28T14:15:51.006Z,20.63
2022-11-28T14:19:18.345Z,26.67
2022-11-28T14:22:31.000Z,35.10
2022-11-28T14:25:41.743Z,51.97
2022-11-28T14:28:45.992Z,47.42
2022-11-28T14:32:21.857Z,31.17
2022-11-28T14:35:38.530Z,48.28
2022-11-28T14:38:43.615Z,33.90
2022-11-28T14:42:06.190Z,33.42
2022-11-28T14:45:42.351Z,43.55
2022-11-28T14:49:01.055Z,51.05
2022-11-28T14:52:37.642Z,41.92
2022-11-28T14:55:41.159Z,38.73
2022-11-28T14:58:49.841Z,41.83
2022-11-28T15:02:10.546Z,41.85
2022-11-28T15:05:31.747Z,40.42
2022-11-28T15:08:59.294Z,38.80
2022-11-28T15:12:24.048Z,42.57
2022-11-28T15:15:31.797Z,38.50
2022-11-28T15:18:36.227Z,35.60
2022-11-28T15:21:48.249Z,34.92
2022-11-28T15:24:54.813Z,37.60
2022-11-28T15:28:12.394Z,37.57
2022-11-28T15:31:23.277Z,44.22
2022-11-28T15:34:32.293Z,49.78
2022-11-28T15:37:36.357Z,54.13
2022-11-28T15:40:40.045Z,60.90
2022-11-28T15:43:45.698Z,53.27
2022-11-28T15:46:49.390Z,49.88
2022-11-28T15:50:19.521Z,46.08
2022-11-28T15:53:23.171Z,47.25
2022-11-28T15:56:26.635Z,50.00
2022-11-28T15:59:30.635Z,45.53
2022-11-28T16:02:36.579Z,31.80
2022-11-28T16:05:40.381Z,26.15
2022-11-28T16:08:55.007Z,24.73
2022-11-28T16:11:58.614Z,32.08
2022-11-28T16:15:05.161Z,38.10
2022-11-28T16:18:15.626Z,45.70
2022-11-28T16:21:19.322Z,54.42
2022-11-28T16:24:35.306Z,55.20
2022-11-28T16:27:45.717Z,41.03
2022-11-28T16:30:51.233Z,39.03
2022-11-28T16:33:55.215Z,36.00
2022-11-28T16:36:58.754Z,36.47
2022-11-28T16:40:23.503Z,30.45
2022-11-28T16:43:40.918Z,31.10
2022-11-28T16:46:57.013Z,32.40
2022-11-28T16:50:15.436Z,31.13
2022-11-28T16:53:41.731Z,29.80
2022-11-28T16:56:45.829Z,27.17
2022-11-28T16:59:52.783Z,26.35
2022-11-28T17:02:56.196Z,35.00
2022-11-28T17:05:59.933Z,35.10
2022-11-28T17:09:10.920Z,29.55
2022-11-28T17:12:23.025Z,29.48
2022-11-28T17:15:26.489Z,31.17
2022-11-28T17:18:29.815Z,34.60
2022-11-28T17:21:43.038Z,42.60
2022-11-28T17:24:48.268Z,45.13
2022-11-28T17:27:53.066Z,48.88
2022-11-28T17:30:56.799Z,43.47
2022-11-28T17:34:00.335Z,33.57
2022-11-28T17:37:05.262Z,32.00
2022-11-28T17:40:28.706Z,33.47
2022-11-28T17:43:37.471Z,38.55
2022-11-28T17:46:42.591Z,43.42
2022-11-28T17:49:46.737Z,40.00
2022-11-28T17:52:50.462Z,41.22
2022-11-28T17:55:59.458Z,40.58
2022-11-28T17:59:03.362Z,46.40
2022-11-28T18:02:07.231Z,36.30
2022-11-28T18:05:11.478Z,40.87
2022-11-28T18:08:22.114Z,38.47
2022-11-28T18:11:27.101Z,68.47
2022-11-28T18:14:35.187Z,41.75
2022-11-28T18:17:42.271Z,39.53
2022-11-28T18:20:45.918Z,40.50
2022-11-28T18:23:50.638Z,39.83
2022-11-28T18:26:55.274Z,38.95
2022-11-28T18:29:58.861Z,34.35
2022-11-28T18:33:02.580Z,33.83
2022-11-28T18:36:15.666Z,31.77
2022-11-28T18:39:19.332Z,35.13
2022-11-28T18:42:22.965Z,37.00
2022-11-28T18:45:26.901Z,45.85
2022-11-28T18:48:30.839Z,42.55
2022-11-28T18:51:35.884Z,42.20
2022-11-28T18:54:39.601Z,38.42
2022-11-28T18:57:43.316Z,38.28
2022-11-28T19:00:46.748Z,43.78
2022-11-28T19:03:53.576Z,44.80
2022-11-28T19:06:57.136Z,39.93
2022-11-28T19:10:01.259Z,39.20
2022-11-28T19:13:06.063Z,36.80
2022-11-28T19:16:16.712Z,33.75
2022-11-28T19:19:20.648Z,38.97
2022-11-28T19:22:26.149Z,59.60
2022-11-28T19:25:29.893Z,44.67
2022-11-28T19:28:36.175Z,39.78
2022-11-28T19:31:42.565Z,35.67
2022-11-28T19:34:46.332Z,34.65
2022-11-28T19:37:50.462Z,32.47
2022-11-28T19:40:55.299Z,32.63
2022-11-28T19:43:59.847Z,30.73
2022-11-28T19:47:06.937Z,30.02
2022-11-28T19:50:11.310Z,31.25
2022-11-28T19:53:14.764Z,33.33
2022-11-28T19:56:22.793Z,36.10
2022-11-28T19:59:27.464Z,38.95
2022-11-28T20:02:32.140Z,36.13
2022-11-28T20:05:38.054Z,36.70
2022-11-28T20:08:42.142Z,37.03
2022-11-28T20:11:45.970Z,40.67
2022-11-28T20:14:49.541Z,42.72
2022-11-28T20:17:53.601Z,40.42
2022-11-28T20:21:03.031Z,40.85
2022-11-28T20:24:08.421Z,40.90
2022-11-28T20:27:12.513Z,40.38
2022-11-28T20:30:16.414Z,40.42
2022-11-28T20:33:20.081Z,39.08
2022-11-28T20:36:25.562Z,34.40
2022-11-28T20:39:29.359Z,33.53
2022-11-28T20:42:40.623Z,30.75
2022-11-28T20:45:44.113Z,31.27
2022-11-28T20:48:48.803Z,30.42
2022-11-28T20:51:52.468Z,38.13
2022-11-28T20:54:56.212Z,36.50
2022-11-28T20:57:59.842Z,35.47
2022-11-28T21:01:03.726Z,32.75
2022-11-28T21:04:08.846Z,34.42
2022-11-28T21:07:12.248Z,32.50
2022-11-28T21:10:16.052Z,32.88
2022-11-28T21:13:19.774Z,33.88
2022-11-28T21:16:29.044Z,33.88
2022-11-28T21:19:32.785Z,30.27
2022-11-28T21:22:36.296Z,31.47
2022-11-28T21:25:41.112Z,30.88
2022-11-28T21:28:47.311Z,33.75
2022-11-28T21:31:51.123Z,32.53
2022-11-28T21:34:56.399Z,32.38
2022-11-28T21:38:01.831Z,32.37
2022-11-28T21:41:05.559Z,30.25
2022-11-28T21:44:09.120Z,31.20
2022-11-28T21:47:12.535Z,30.30
2022-11-28T21:50:15.971Z,32.75
2022-11-28T21:53:19.367Z,30.63
2022-11-28T21:56:24.154Z,30.20
2022-11-28T21:59:27.485Z,34.25
2022-11-28T22:02:31.257Z,32.58
2022-11-28T22:05:35.262Z,32.78
2022-11-28T22:08:38.866Z,29.77
2022-11-28T22:11:42.146Z,29.45
2022-11-28T22:14:46.400Z,28.08
2022-11-28T22:17:49.862Z,27.25
2022-11-28T22:21:22.384Z,26.48
2022-11-28T22:24:29.181Z,27.90
2022-11-28T22:27:33.088Z,28.63
2022-11-28T22:30:38.239Z,28.13
2022-11-28T22:33:41.608Z,28.23
2022-11-28T22:36:45.394Z,30.10
2022-11-28T22:39:48.824Z,26.85
2022-11-28T22:42:55.412Z,31.55
2022-11-28T22:45:59.376Z,33.35
2022-11-28T22:49:03.022Z,31.55
2022-11-28T22:52:06.943Z,30.10
2022-11-28T22:55:10.415Z,28.95
2022-11-28T22:58:13.879Z,30.35
2022-11-28T23:01:20.483Z,30.50
2022-11-28T23:04:24.157Z,29.58
2022-11-28T23:07:27.743Z,27.53
2022-11-28T23:10:31.660Z,27.70
2022-11-28T23:13:39.105Z,26.85
2022-11-28T23:16:44.287Z,26.38
2022-11-28T23:19:47.940Z,27.10
2022-11-28T23:22:51.616Z,27.50
2022-11-28T23:25:55.286Z,27.65
2022-11-28T23:29:00.989Z,27.38
2022-11-28T23:32:04.938Z,26.88
2022-11-28T23:35:08.620Z,26.67
2022-11-28T23:38:12.286Z,26.03
2022-11-28T23:41:16.366Z,25.58
2022-11-28T23:44:20.526Z,27.00
2022-11-28T23:47:23.934Z,25.90
2022-11-28T23:50:27.372Z,25.48
2022-11-28T23:53:30.825Z,27.90
2022-11-28T23:56:36.882Z,26.75
2022-11-28T23:59:40.265Z,26.75
